Maersk Lavras — VRJH6 — position and weather

sailwx.info

Track history (hours):
 
Tides and Currents Weather Stations Pressure Air Temp Water Temp Dewpoint Dewpoint Depression Visibility Wind Speed Wind Dir Waves Ship Positions

Maersk Lavras

Last reported at 2017-Nov-23 01:30 UTC. Time now 2017-Nov-23 01:56 UTC.
Position N 50°14' W 001°25'.

Length 300 m; draft 11.1 m.

Type: Ship (hazmat cat D). MMSI: 477535200.

Date/timePositionNaut miles runAvg speedWind from/ knotsBaromVisibWave heightAir tempDewpointWater temp
2017-Nov-23 01:30N 50°14' W 001°25'714.0
2017-Nov-23 01:01N 50°17' W 001°15'713.7
2017-Nov-23 00:30N 50°19' W 001°04'713.1
2017-Nov-22 23:58N 50°20' W 000°54'1112.8
2017-Nov-22 23:08N 50°23' W 000°38'212.9
2017-Nov-22 23:00N 50°24' W 000°35'813.3
2017-Nov-22 22:26N 50°26' W 000°24'613.2
2017-Nov-22 21:59N 50°27' W 000°15'713.7
2017-Nov-22 21:30N 50°29' W 000°05'713.8
2017-Nov-22 21:00N 50°31' E 000°06'714.0
2017-Nov-22 20:30N 50°32' E 000°17'714.1
2017-Nov-22 20:00N 50°35' E 000°27'714.5
2017-Nov-22 19:30N 50°39' E 000°36'  
2017-Nov-20 00:29N 53°36' E 008°31'0 0.0
2017-Nov-19 23:59N 53°36' E 008°31'0 0.0
2017-Nov-19 23:29N 53°36' E 008°31'0 0.0
2017-Nov-19 22:59N 53°36' E 008°31'0 0.0
2017-Nov-19 22:29N 53°36' E 008°31'0 0.0
2017-Nov-19 21:59N 53°36' E 008°31'0 0.0
2017-Nov-19 21:29N 53°36' E 008°31'0 0.0
2017-Nov-19 20:59N 53°36' E 008°31'0 0.0
2017-Nov-19 20:29N 53°36' E 008°31'0 0.0
2017-Nov-19 19:59N 53°36' E 008°31'0 0.2
2017-Nov-19 19:31N 53°36' E 008°31'3 5.1
2017-Nov-19 19:00N 53°37' E 008°28'714.3
2017-Nov-19 18:30N 53°42' E 008°19'714.9
2017-Nov-19 18:01N 53°47' E 008°09'814.8
2017-Nov-19 17:30N 53°51' E 007°59'815.5
2017-Nov-19 17:00N 53°53' E 007°46'611.9
2017-Nov-19 16:30N 53°54' E 007°36'7816.7
2017-Nov-19 11:52N 53°34' E 005°29'917.2
2017-Nov-19 11:22N 53°31' E 005°15'718.2
2017-Nov-19 10:57N 53°30' E 005°03'817.0
2017-Nov-19 10:30N 53°27' E 004°51'1616.5
2017-Nov-19 09:33N 53°15' E 004°36'117.4
2017-Nov-19 09:30N 53°14' E 004°35'817.0
2017-Nov-19 09:00N 53°06' E 004°29'917.6
2017-Nov-19 08:30N 52°59' E 004°22'918.0
2017-Nov-19 08:00N 52°51' E 004°14'918.1
2017-Nov-19 07:30N 52°44' E 004°04'918.6
2017-Nov-19 07:00N 52°37' E 003°54'1019.3
2017-Nov-19 06:30N 52°30' E 003°43'1019.9
2017-Nov-19 06:00N 52°24' E 003°31'1019.7
2017-Nov-19 05:30N 52°16' E 003°21'5020.1
2017-Nov-19 03:00N 51°53' E 002°08'1020.7
2017-Nov-19 02:30N 51°48' E 001°53'714.6
2017-Nov-19 02:01N 51°51' E 001°42'612.7
2017-Nov-19 01:31N 51°48' E 001°33'917.2
2017-Nov-19 01:00N 51°40' E 001°26'816.7
2017-Nov-19 00:30N 51°35' E 001°15'816.2
2017-Nov-19 00:00N 51°31' E 001°04'714.8
2017-Nov-18 23:30N 51°29' E 000°53'714.6
2017-Nov-18 23:00N 51°30' E 000°41'713.3
2017-Nov-18 22:31N 51°30' E 000°30'0 0.8
2017-Nov-18 22:00N 51°30' E 000°30'0 0.0
2017-Nov-18 21:31N 51°30' E 000°30'0 0.0
2017-Nov-18 21:00N 51°30' E 000°30'0 0.0
2017-Nov-18 20:31N 51°30' E 000°30'0 0.0
2017-Nov-18 20:00N 51°30' E 000°30'0 0.0
2017-Nov-18 19:31N 51°30' E 000°30'0 0.0
2017-Nov-18 19:00N 51°30' E 000°30'0 0.0
2017-Nov-18 18:30N 51°30' E 000°30'0 0.0
2017-Nov-18 18:01N 51°30' E 000°30'0 0.0
2017-Nov-18 17:29N 51°30' E 000°30'0 0.0
2017-Nov-18 17:01N 51°30' E 000°30'0 0.0
2017-Nov-18 16:30N 51°30' E 000°30'0 0.0
2017-Nov-18 16:00N 51°30' E 000°30'0 0.0
2017-Nov-18 15:31N 51°30' E 000°30'0 0.0
2017-Nov-18 15:01N 51°30' E 000°30'0 0.0
2017-Nov-18 14:31N 51°30' E 000°30'0 0.0
2017-Nov-18 14:00N 51°30' E 000°30'0 0.0
2017-Nov-18 13:01N 51°30' E 000°30'0 0.0
2017-Nov-18 13:01N 51°30' E 000°30'0 0.0
2017-Nov-18 12:31N 51°30' E 000°30'0 0.0
2017-Nov-18 12:01N 51°30' E 000°30'0 0.0
2017-Nov-18 11:31N 51°30' E 000°30'0 0.0
2017-Nov-18 11:01N 51°30' E 000°30'0 0.0
2017-Nov-18 10:31N 51°30' E 000°30'0 0.0
2017-Nov-18 10:00N 51°30' E 000°30'0 0.0
2017-Nov-18 09:31N 51°30' E 000°30'0 0.0
2017-Nov-18 09:01N 51°30' E 000°30'0 0.6
2017-Nov-18 08:30N 51°30' E 000°30'3 5.8
2017-Nov-18 08:00N 51°30' E 000°35'612.9
2017-Nov-18 07:30N 51°30' E 000°45'815.8
2017-Nov-18 07:00N 51°29' E 000°58'816.1
2017-Nov-18 06:30N 51°33' E 001°09'815.7
2017-Nov-18 06:00N 51°37' E 001°20'815.8
2017-Nov-18 05:30N 51°43' E 001°29'815.2
2017-Nov-18 05:01N 51°49' E 001°36'4 7.9
2017-Nov-18 04:30N 51°51' E 001°41'2 4.7
2017-Nov-18 04:00N 51°52' E 001°45'3 5.6
2017-Nov-18 03:30N 51°51' E 001°49'4 7.0
2017-Nov-18 03:00N 51°50' E 001°54'4 7.2
2017-Nov-18 02:30N 51°52' E 001°60'4 7.3
2017-Nov-18 02:00N 51°53' E 002°05'4 7.2
2017-Nov-18 01:30N 51°55' E 002°10'4 7.4
2017-Nov-18 01:00N 51°56' E 002°16'4 7.7
2017-Nov-18 00:30N 51°57' E 002°22'4 8.0
2017-Nov-18 00:00N 51°58' E 002°28'30 9.0
2017-Nov-17 20:43N 52°03' E 003°16'3 9.7
2017-Nov-17 20:24N 52°03' E 003°21'1110.0
2017-Nov-17 19:20N 52°03' E 003°38'310.0
2017-Nov-17 19:00N 52°03' E 003°44'510.3
2017-Nov-17 18:30N 52°03' E 003°52'4 7.5
2017-Nov-17 18:00N 52°01' E 003°57'611.6
2017-Nov-17 17:30N 51°58' E 004°05'3 5.9
2017-Nov-17 17:00N 51°58' E 004°00'1 1.2
2017-Nov-17 16:30N 51°57' E 004°00'0 0.0
2017-Nov-17 16:00N 51°57' E 004°00'0 0.0
2017-Nov-17 15:30N 51°57' E 004°00'0 0.0
2017-Nov-17 15:00N 51°57' E 004°00'0 0.0
2017-Nov-17 14:30N 51°57' E 004°00'0 0.0
2017-Nov-17 14:00N 51°57' E 004°00'0 0.0
2017-Nov-17 13:30N 51°57' E 004°00'0 0.0
2017-Nov-17 13:00N 51°57' E 004°00'0 0.0
2017-Nov-17 12:30N 51°57' E 004°00'0 0.0
2017-Nov-17 12:00N 51°57' E 004°00'0 0.0
2017-Nov-17 11:30N 51°57' E 004°00'0 0.0
2017-Nov-17 11:00N 51°57' E 004°00'0 0.0
2017-Nov-17 10:30N 51°57' E 004°00'0 0.0
2017-Nov-17 10:00N 51°57' E 004°00'0 0.0
2017-Nov-17 09:30N 51°57' E 004°00'0 0.0
2017-Nov-17 09:00N 51°57' E 004°00'0 0.0
2017-Nov-17 08:30N 51°57' E 004°00'0 0.0
2017-Nov-17 08:00N 51°57' E 004°00'0 0.0
2017-Nov-17 07:27N 51°57' E 004°00'0 0.0
2017-Nov-17 07:00N 51°57' E 004°00'0 0.0
2017-Nov-17 06:30N 51°57' E 004°00'0 0.0
2017-Nov-17 06:00N 51°57' E 004°00'0 0.0
2017-Nov-17 05:30N 51°57' E 004°00'0 0.0
2017-Nov-17 05:00N 51°57' E 004°00'0 0.0
2017-Nov-17 04:30N 51°57' E 004°00'0 0.0
2017-Nov-17 04:00N 51°57' E 004°00'0 0.0
2017-Nov-17 03:30N 51°57' E 004°00'0 0.0
2017-Nov-17 03:00N 51°57' E 004°00'0 0.0
2017-Nov-17 02:30N 51°57' E 004°00'0 0.0
2017-Nov-17 02:00N 51°57' E 004°00'0 0.0
2017-Nov-17 01:30N 51°57' E 004°00'0 0.0
2017-Nov-17 01:00N 51°57' E 004°00'1 2.8
2017-Nov-17 00:30N 51°59' E 004°00'3 6.2
2017-Nov-17 00:00N 51°58' E 004°05'5 9.6
2017-Nov-16 23:30N 51°60' E 003°58'713.0
2017-Nov-16 23:00N 51°60' E 003°48'4 8.4
2017-Nov-16 22:30N 51°58' E 003°41'612.1
2017-Nov-16 22:00N 51°57' E 003°32'714.7
2017-Nov-16 21:30N 51°54' E 003°20'914.8
2017-Nov-16 20:52N 51°52' E 003°06'615.5
2017-Nov-16 20:30N 51°50' E 002°57'2614.2
2017-Nov-16 18:39N 51°34' E 002°23'214.1
2017-Nov-16 18:30N 51°33' E 002°20'713.8
2017-Nov-16 18:01N 51°28' E 002°13'713.0
2017-Nov-16 17:31N 51°22' E 002°08'713.6
2017-Nov-16 17:00N 51°16' E 002°06'713.8
2017-Nov-16 16:30N 51°11' E 001°58'714.2
2017-Nov-16 16:01N 51°08' E 001°48'714.2
2017-Nov-16 15:31N 51°04' E 001°38'714.9
2017-Nov-16 15:00N 50°59' E 001°29'714.7
2017-Nov-16 14:31N 50°52' E 001°25'814.9
2017-Nov-16 14:00N 50°45' E 001°22'714.4
2017-Nov-16 13:30N 50°39' E 001°15'814.9
2017-Nov-16 13:00N 50°34' E 001°07'714.5
2017-Nov-16 12:31N 50°29' E 000°58'714.8
2017-Nov-16 12:00N 50°27' E 000°47'814.6
2017-Nov-16 11:29N 50°25' E 000°35'714.6
2017-Nov-16 11:00N 50°23' E 000°25'714.7
2017-Nov-16 10:30N 50°20' E 000°14'815.0
2017-Nov-16 10:00N 50°18' E 000°03'816.8
2017-Nov-16 09:31N 50°16' W 000°10'918.8
2017-Nov-16 09:00N 50°14' W 000°24'1019.5
2017-Nov-16 08:30N 50°12' W 000°39'1220.3
2017-Nov-16 07:56N 50°09' W 000°57'1021.0
2017-Nov-16 07:27N 50°06' W 001°12'1021.4
2017-Nov-16 07:00N 50°04' W 001°26'1121.7
2017-Nov-16 06:30N 50°03' W 001°43'1121.8
2017-Nov-16 06:00N 50°01' W 001°60'1121.5
2017-Nov-16 05:31N 49°58' W 002°16'1020.6
2017-Nov-16 05:00N 49°55' W 002°31'1020.1
2017-Nov-16 04:30N 49°51' W 002°46'1019.6
2017-Nov-16 04:00N 49°48' W 003°00'1019.3
2017-Nov-16 03:30N 49°42' W 003°13'1019.2
2017-Nov-16 03:00N 49°37' W 003°25'1019.2
2017-Nov-16 02:29N 49°32' W 003°38'919.0
2017-Nov-16 02:01N 49°27' W 003°50'1119.0
2017-Nov-16 01:25N 49°22' W 004°05'1018.7
2017-Nov-16 00:53N 49°17' W 004°19'718.8
2017-Nov-16 00:30N 49°14' W 004°29'1018.5
2017-Nov-15 23:58N 49°09' W 004°42'918.4
2017-Nov-15 23:29N 49°05' W 004°54'918.2
2017-Nov-15 23:00N 49°01' W 005°06'917.9
2017-Nov-15 22:31N 48°57' W 005°18'917.5
2017-Nov-15 21:59N 48°52' W 005°29'817.5
2017-Nov-15 21:30N 48°46' W 005°38'917.3
2017-Nov-15 21:01N 48°39' W 005°46'917.2
2017-Nov-15 20:30N 48°31' W 005°53'817.0
2017-Nov-15 20:00N 48°25' W 005°60'917.0
2017-Nov-15 19:30N 48°17' W 006°07'817.1
2017-Nov-15 19:00N 48°10' W 006°13'917.4
2017-Nov-15 18:31N 48°02' W 006°16'1020.1
2017-Nov-15 18:00N 47°51' W 006°17'1120.9
2017-Nov-15 17:29N 47°42' W 006°24'1020.6
2017-Nov-15 17:00N 47°34' W 006°33'1121.0
2017-Nov-15 16:30N 47°25' W 006°42'1121.8
2017-Nov-15 16:00N 47°15' W 006°48'1121.5
2017-Nov-15 15:30N 47°06' W 006°56'1721.6
2017-Nov-15 14:42N 46°51' W 007°09'45420.6
2017-Nov-14 16:37N 39°32' W 009°51'920.6
2017-Nov-14 16:10N 39°23' W 009°51'320.5
2017-Nov-14 16:00N 39°20' W 009°51'1121.4
2017-Nov-14 15:30N 39°09' W 009°51'1121.3
2017-Nov-14 15:00N 38°58' W 009°52'1121.3
2017-Nov-14 14:30N 38°48' W 009°52'1121.4
2017-Nov-14 14:00N 38°37' W 009°49'1121.6
2017-Nov-14 13:30N 38°27' W 009°46'1121.5
2017-Nov-14 13:00N 38°16' W 009°42'1121.6
2017-Nov-14 12:30N 38°06' W 009°38'1122.0
2017-Nov-14 12:00N 37°55' W 009°35'1122.1
2017-Nov-14 11:30N 37°45' W 009°31'1322.2
2017-Nov-14 10:56N 37°32' W 009°27'8119.3
2017-Nov-14 06:43N 36°32' W 008°19'622.6
2017-Nov-14 06:28N 36°30' W 008°12'12821.4
2017-Nov-14 00:29N 35°58' W 005°39'817.0
2017-Nov-14 00:01N 36°00' W 005°29'714.9
2017-Nov-13 23:31N 36°06' W 005°23'3 7.0
2017-Nov-13 23:00N 36°09' W 005°26'0 0.3
2017-Nov-13 22:30N 36°09' W 005°26'0 0.0
2017-Nov-13 22:00N 36°09' W 005°26'0 0.0
2017-Nov-13 02:00N 36°09' W 005°26'  
Track history (hours):
 
Tides and Currents Weather Stations Pressure Air Temp Water Temp Dewpoint Dewpoint Depression Visibility Wind Speed Wind Dir Waves Ship Positions

Maersk Lavras

Last reported at 2017-Nov-23 01:30 UTC. Time now 2017-Nov-23 01:56 UTC.
Position N 50°14' W 001°25'.

Length 300 m; draft 11.1 m.

Type: Ship (hazmat cat D). MMSI: 477535200.

Date/timePositionNaut miles runAvg speedWind from/ knotsBaromVisibWave heightAir tempDewpointWater temp
2017-Nov-23 01:30N 50°14' W 001°25'714.0
2017-Nov-23 01:01N 50°17' W 001°15'713.7
2017-Nov-23 00:30N 50°19' W 001°04'713.1
2017-Nov-22 23:58N 50°20' W 000°54'1112.8
2017-Nov-22 23:08N 50°23' W 000°38'212.9
2017-Nov-22 23:00N 50°24' W 000°35'813.3
2017-Nov-22 22:26N 50°26' W 000°24'613.2
2017-Nov-22 21:59N 50°27' W 000°15'713.7
2017-Nov-22 21:30N 50°29' W 000°05'713.8
2017-Nov-22 21:00N 50°31' E 000°06'714.0
2017-Nov-22 20:30N 50°32' E 000°17'714.1
2017-Nov-22 20:00N 50°35' E 000°27'714.5
2017-Nov-22 19:30N 50°39' E 000°36'  
2017-Nov-20 00:29N 53°36' E 008°31'0 0.0
2017-Nov-19 23:59N 53°36' E 008°31'0 0.0
2017-Nov-19 23:29N 53°36' E 008°31'0 0.0
2017-Nov-19 22:59N 53°36' E 008°31'0 0.0
2017-Nov-19 22:29N 53°36' E 008°31'0 0.0
2017-Nov-19 21:59N 53°36' E 008°31'0 0.0
2017-Nov-19 21:29N 53°36' E 008°31'0 0.0
2017-Nov-19 20:59N 53°36' E 008°31'0 0.0
2017-Nov-19 20:29N 53°36' E 008°31'0 0.0
2017-Nov-19 19:59N 53°36' E 008°31'0 0.2
2017-Nov-19 19:31N 53°36' E 008°31'3 5.1
2017-Nov-19 19:00N 53°37' E 008°28'714.3
2017-Nov-19 18:30N 53°42' E 008°19'714.9
2017-Nov-19 18:01N 53°47' E 008°09'814.8
2017-Nov-19 17:30N 53°51' E 007°59'815.5
2017-Nov-19 17:00N 53°53' E 007°46'611.9
2017-Nov-19 16:30N 53°54' E 007°36'7816.7
2017-Nov-19 11:52N 53°34' E 005°29'917.2
2017-Nov-19 11:22N 53°31' E 005°15'718.2
2017-Nov-19 10:57N 53°30' E 005°03'817.0
2017-Nov-19 10:30N 53°27' E 004°51'1616.5
2017-Nov-19 09:33N 53°15' E 004°36'117.4
2017-Nov-19 09:30N 53°14' E 004°35'817.0
2017-Nov-19 09:00N 53°06' E 004°29'917.6
2017-Nov-19 08:30N 52°59' E 004°22'918.0
2017-Nov-19 08:00N 52°51' E 004°14'918.1
2017-Nov-19 07:30N 52°44' E 004°04'918.6
2017-Nov-19 07:00N 52°37' E 003°54'1019.3
2017-Nov-19 06:30N 52°30' E 003°43'1019.9
2017-Nov-19 06:00N 52°24' E 003°31'1019.7
2017-Nov-19 05:30N 52°16' E 003°21'5020.1
2017-Nov-19 03:00N 51°53' E 002°08'1020.7
2017-Nov-19 02:30N 51°48' E 001°53'714.6
2017-Nov-19 02:01N 51°51' E 001°42'612.7
2017-Nov-19 01:31N 51°48' E 001°33'917.2
2017-Nov-19 01:00N 51°40' E 001°26'816.7
2017-Nov-19 00:30N 51°35' E 001°15'816.2
2017-Nov-19 00:00N 51°31' E 001°04'714.8
2017-Nov-18 23:30N 51°29' E 000°53'714.6
2017-Nov-18 23:00N 51°30' E 000°41'713.3
2017-Nov-18 22:31N 51°30' E 000°30'0 0.8
2017-Nov-18 22:00N 51°30' E 000°30'0 0.0
2017-Nov-18 21:31N 51°30' E 000°30'0 0.0
2017-Nov-18 21:00N 51°30' E 000°30'0 0.0
2017-Nov-18 20:31N 51°30' E 000°30'0 0.0
2017-Nov-18 20:00N 51°30' E 000°30'0 0.0
2017-Nov-18 19:31N 51°30' E 000°30'0 0.0
2017-Nov-18 19:00N 51°30' E 000°30'0 0.0
2017-Nov-18 18:30N 51°30' E 000°30'0 0.0
2017-Nov-18 18:01N 51°30' E 000°30'0 0.0
2017-Nov-18 17:29N 51°30' E 000°30'0 0.0
2017-Nov-18 17:01N 51°30' E 000°30'0 0.0
2017-Nov-18 16:30N 51°30' E 000°30'0 0.0
2017-Nov-18 16:00N 51°30' E 000°30'0 0.0
2017-Nov-18 15:31N 51°30' E 000°30'0 0.0
2017-Nov-18 15:01N 51°30' E 000°30'0 0.0
2017-Nov-18 14:31N 51°30' E 000°30'0 0.0
2017-Nov-18 14:00N 51°30' E 000°30'0 0.0
2017-Nov-18 13:01N 51°30' E 000°30'0 0.0
2017-Nov-18 13:01N 51°30' E 000°30'0 0.0
2017-Nov-18 12:31N 51°30' E 000°30'0 0.0
2017-Nov-18 12:01N 51°30' E 000°30'0 0.0
2017-Nov-18 11:31N 51°30' E 000°30'0 0.0
2017-Nov-18 11:01N 51°30' E 000°30'0 0.0
2017-Nov-18 10:31N 51°30' E 000°30'0 0.0
2017-Nov-18 10:00N 51°30' E 000°30'0 0.0
2017-Nov-18 09:31N 51°30' E 000°30'0 0.0
2017-Nov-18 09:01N 51°30' E 000°30'0 0.6
2017-Nov-18 08:30N 51°30' E 000°30'3 5.8
2017-Nov-18 08:00N 51°30' E 000°35'612.9
2017-Nov-18 07:30N 51°30' E 000°45'815.8
2017-Nov-18 07:00N 51°29' E 000°58'816.1
2017-Nov-18 06:30N 51°33' E 001°09'815.7
2017-Nov-18 06:00N 51°37' E 001°20'815.8
2017-Nov-18 05:30N 51°43' E 001°29'815.2
2017-Nov-18 05:01N 51°49' E 001°36'4 7.9
2017-Nov-18 04:30N 51°51' E 001°41'2 4.7
2017-Nov-18 04:00N 51°52' E 001°45'3 5.6
2017-Nov-18 03:30N 51°51' E 001°49'4 7.0
2017-Nov-18 03:00N 51°50' E 001°54'4 7.2
2017-Nov-18 02:30N 51°52' E 001°60'4 7.3
2017-Nov-18 02:00N 51°53' E 002°05'4 7.2
2017-Nov-18 01:30N 51°55' E 002°10'4 7.4
2017-Nov-18 01:00N 51°56' E 002°16'4 7.7
2017-Nov-18 00:30N 51°57' E 002°22'4 8.0
2017-Nov-18 00:00N 51°58' E 002°28'30 9.0
2017-Nov-17 20:43N 52°03' E 003°16'3 9.7
2017-Nov-17 20:24N 52°03' E 003°21'1110.0
2017-Nov-17 19:20N 52°03' E 003°38'310.0
2017-Nov-17 19:00N 52°03' E 003°44'510.3
2017-Nov-17 18:30N 52°03' E 003°52'4 7.5
2017-Nov-17 18:00N 52°01' E 003°57'611.6
2017-Nov-17 17:30N 51°58' E 004°05'3 5.9
2017-Nov-17 17:00N 51°58' E 004°00'1 1.2
2017-Nov-17 16:30N 51°57' E 004°00'0 0.0
2017-Nov-17 16:00N 51°57' E 004°00'0 0.0
2017-Nov-17 15:30N 51°57' E 004°00'0 0.0
2017-Nov-17 15:00N 51°57' E 004°00'0 0.0
2017-Nov-17 14:30N 51°57' E 004°00'0 0.0
2017-Nov-17 14:00N 51°57' E 004°00'0 0.0
2017-Nov-17 13:30N 51°57' E 004°00'0 0.0
2017-Nov-17 13:00N 51°57' E 004°00'0 0.0
2017-Nov-17 12:30N 51°57' E 004°00'0 0.0
2017-Nov-17 12:00N 51°57' E 004°00'0 0.0
2017-Nov-17 11:30N 51°57' E 004°00'0 0.0
2017-Nov-17 11:00N 51°57' E 004°00'0 0.0
2017-Nov-17 10:30N 51°57' E 004°00'0 0.0
2017-Nov-17 10:00N 51°57' E 004°00'0 0.0
2017-Nov-17 09:30N 51°57' E 004°00'0 0.0
2017-Nov-17 09:00N 51°57' E 004°00'0 0.0
2017-Nov-17 08:30N 51°57' E 004°00'0 0.0
2017-Nov-17 08:00N 51°57' E 004°00'0 0.0
2017-Nov-17 07:27N 51°57' E 004°00'0 0.0
2017-Nov-17 07:00N 51°57' E 004°00'0 0.0
2017-Nov-17 06:30N 51°57' E 004°00'0 0.0
2017-Nov-17 06:00N 51°57' E 004°00'0 0.0
2017-Nov-17 05:30N 51°57' E 004°00'0 0.0
2017-Nov-17 05:00N 51°57' E 004°00'0 0.0
2017-Nov-17 04:30N 51°57' E 004°00'0 0.0
2017-Nov-17 04:00N 51°57' E 004°00'0 0.0
2017-Nov-17 03:30N 51°57' E 004°00'0 0.0
2017-Nov-17 03:00N 51°57' E 004°00'0 0.0
2017-Nov-17 02:30N 51°57' E 004°00'0 0.0
2017-Nov-17 02:00N 51°57' E 004°00'0 0.0
2017-Nov-17 01:30N 51°57' E 004°00'0 0.0
2017-Nov-17 01:00N 51°57' E 004°00'1 2.8
2017-Nov-17 00:30N 51°59' E 004°00'3 6.2
2017-Nov-17 00:00N 51°58' E 004°05'5 9.6
2017-Nov-16 23:30N 51°60' E 003°58'713.0
2017-Nov-16 23:00N 51°60' E 003°48'4 8.4
2017-Nov-16 22:30N 51°58' E 003°41'612.1
2017-Nov-16 22:00N 51°57' E 003°32'714.7
2017-Nov-16 21:30N 51°54' E 003°20'914.8
2017-Nov-16 20:52N 51°52' E 003°06'615.5
2017-Nov-16 20:30N 51°50' E 002°57'2614.2
2017-Nov-16 18:39N 51°34' E 002°23'214.1
2017-Nov-16 18:30N 51°33' E 002°20'713.8
2017-Nov-16 18:01N 51°28' E 002°13'713.0
2017-Nov-16 17:31N 51°22' E 002°08'713.6
2017-Nov-16 17:00N 51°16' E 002°06'713.8
2017-Nov-16 16:30N 51°11' E 001°58'714.2
2017-Nov-16 16:01N 51°08' E 001°48'714.2
2017-Nov-16 15:31N 51°04' E 001°38'714.9
2017-Nov-16 15:00N 50°59' E 001°29'714.7
2017-Nov-16 14:31N 50°52' E 001°25'814.9
2017-Nov-16 14:00N 50°45' E 001°22'714.4
2017-Nov-16 13:30N 50°39' E 001°15'814.9
2017-Nov-16 13:00N 50°34' E 001°07'714.5
2017-Nov-16 12:31N 50°29' E 000°58'714.8
2017-Nov-16 12:00N 50°27' E 000°47'814.6
2017-Nov-16 11:29N 50°25' E 000°35'714.6
2017-Nov-16 11:00N 50°23' E 000°25'714.7
2017-Nov-16 10:30N 50°20' E 000°14'815.0
2017-Nov-16 10:00N 50°18' E 000°03'816.8
2017-Nov-16 09:31N 50°16' W 000°10'918.8
2017-Nov-16 09:00N 50°14' W 000°24'1019.5
2017-Nov-16 08:30N 50°12' W 000°39'1220.3
2017-Nov-16 07:56N 50°09' W 000°57'1021.0
2017-Nov-16 07:27N 50°06' W 001°12'1021.4
2017-Nov-16 07:00N 50°04' W 001°26'1121.7
2017-Nov-16 06:30N 50°03' W 001°43'1121.8
2017-Nov-16 06:00N 50°01' W 001°60'1121.5
2017-Nov-16 05:31N 49°58' W 002°16'1020.6
2017-Nov-16 05:00N 49°55' W 002°31'1020.1
2017-Nov-16 04:30N 49°51' W 002°46'1019.6
2017-Nov-16 04:00N 49°48' W 003°00'1019.3
2017-Nov-16 03:30N 49°42' W 003°13'1019.2
2017-Nov-16 03:00N 49°37' W 003°25'1019.2
2017-Nov-16 02:29N 49°32' W 003°38'919.0
2017-Nov-16 02:01N 49°27' W 003°50'1119.0
2017-Nov-16 01:25N 49°22' W 004°05'1018.7
2017-Nov-16 00:53N 49°17' W 004°19'718.8
2017-Nov-16 00:30N 49°14' W 004°29'1018.5
2017-Nov-15 23:58N 49°09' W 004°42'918.4
2017-Nov-15 23:29N 49°05' W 004°54'918.2
2017-Nov-15 23:00N 49°01' W 005°06'917.9
2017-Nov-15 22:31N 48°57' W 005°18'917.5
2017-Nov-15 21:59N 48°52' W 005°29'817.5
2017-Nov-15 21:30N 48°46' W 005°38'917.3
2017-Nov-15 21:01N 48°39' W 005°46'917.2
2017-Nov-15 20:30N 48°31' W 005°53'817.0
2017-Nov-15 20:00N 48°25' W 005°60'917.0
2017-Nov-15 19:30N 48°17' W 006°07'817.1
2017-Nov-15 19:00N 48°10' W 006°13'917.4
2017-Nov-15 18:31N 48°02' W 006°16'1020.1
2017-Nov-15 18:00N 47°51' W 006°17'1120.9
2017-Nov-15 17:29N 47°42' W 006°24'1020.6
2017-Nov-15 17:00N 47°34' W 006°33'1121.0
2017-Nov-15 16:30N 47°25' W 006°42'1121.8
2017-Nov-15 16:00N 47°15' W 006°48'1121.5
2017-Nov-15 15:30N 47°06' W 006°56'1721.6
2017-Nov-15 14:42N 46°51' W 007°09'45420.6
2017-Nov-14 16:37N 39°32' W 009°51'920.6
2017-Nov-14 16:10N 39°23' W 009°51'320.5
2017-Nov-14 16:00N 39°20' W 009°51'1121.4
2017-Nov-14 15:30N 39°09' W 009°51'1121.3
2017-Nov-14 15:00N 38°58' W 009°52'1121.3
2017-Nov-14 14:30N 38°48' W 009°52'1121.4
2017-Nov-14 14:00N 38°37' W 009°49'1121.6
2017-Nov-14 13:30N 38°27' W 009°46'1121.5
2017-Nov-14 13:00N 38°16' W 009°42'1121.6
2017-Nov-14 12:30N 38°06' W 009°38'1122.0
2017-Nov-14 12:00N 37°55' W 009°35'1122.1
2017-Nov-14 11:30N 37°45' W 009°31'1322.2
2017-Nov-14 10:56N 37°32' W 009°27'8119.3
2017-Nov-14 06:43N 36°32' W 008°19'622.6
2017-Nov-14 06:28N 36°30' W 008°12'12821.4
2017-Nov-14 00:29N 35°58' W 005°39'817.0
2017-Nov-14 00:01N 36°00' W 005°29'714.9
2017-Nov-13 23:31N 36°06' W 005°23'3 7.0
2017-Nov-13 23:00N 36°09' W 005°26'0 0.3
2017-Nov-13 22:30N 36°09' W 005°26'0 0.0
2017-Nov-13 22:00N 36°09' W 005°26'0 0.0
2017-Nov-13 02:00N 36°09' W 005°26'  

Dump ship's entire track history